Time;durP1;ratioP1;P1;durP2;ratioP2;P2;SDS_P1;SDS_P2;PMS_P1;PMS_P2;Temp;Humidity;BMP_temperature;BMP_pressure;BME280_temperature;BME280_humidity;BME280_pressure;Samples;Min_cycle;Max_cycle;Signal;HPM_P1;HPM_P2
2021/08/16 00:02:57;;;;;;;29.58;12.95;;;;;;;19.86;100.00;96337.25;5032286;28;20067;-66
2021/08/16 00:08:45;;;;;;;25.20;11.95;;;;;;;20.11;100.00;96333.03;5031108;28;20028;-66
2021/08/16 00:11:10;;;;;;;30.02;12.35;;;;;;;20.04;100.00;96334.00;5032628;28;20041;-65
2021/08/16 00:13:35;;;;;;;24.48;13.13;;;;;;;19.96;100.00;96340.97;5039773;28;20064;-65
2021/08/16 00:16:01;;;;;;;26.15;13.57;;;;;;;19.93;100.00;96339.06;5034277;28;20049;-65
2021/08/16 00:18:29;;;;;;;19.48;10.65;;;;;;;19.94;100.00;96344.19;5035207;28;20045;-66
2021/08/16 00:20:55;;;;;;;21.08;11.23;;;;;;;19.96;100.00;96349.31;5038706;28;20083;-66
2021/08/16 00:23:20;;;;;;;23.50;10.85;;;;;;;20.03;100.00;96357.47;5031067;28;20066;-66
2021/08/16 00:25:46;;;;;;;17.58;9.50;;;;;;;20.05;100.00;96352.25;5028375;28;20142;-65
2021/08/16 00:28:11;;;;;;;39.92;11.27;;;;;;;20.02;100.00;96353.91;5044076;28;20052;-65
2021/08/16 00:30:37;;;;;;;18.83;9.57;;;;;;;19.88;100.00;96350.72;5059700;28;20045;-66
2021/08/16 00:33:02;;;;;;;22.48;10.63;;;;;;;20.01;100.00;96357.13;5038212;28;20037;-69
2021/08/16 00:35:28;;;;;;;21.75;9.98;;;;;;;20.04;100.00;96359.00;5034467;28;20040;-66
2021/08/16 00:37:53;;;;;;;22.10;9.73;;;;;;;19.98;100.00;96353.22;5018906;28;20049;-66
2021/08/16 00:40:19;;;;;;;20.20;10.82;;;;;;;19.95;100.00;96347.75;5031824;28;20077;-67
2021/08/16 00:42:44;;;;;;;24.17;9.93;;;;;;;19.90;100.00;96349.06;5020137;28;20645;-65
2021/08/16 00:45:11;;;;;;;28.08;11.00;;;;;;;19.82;100.00;96348.44;5048935;28;20059;-67
2021/08/16 00:47:38;;;;;;;26.15;10.80;;;;;;;19.74;100.00;96344.31;5044409;28;20064;-65
2021/08/16 00:50:06;;;;;;;26.63;11.18;;;;;;;19.70;100.00;96342.78;5035110;28;20049;-67
2021/08/16 00:52:32;;;;;;;18.73;10.77;;;;;;;19.67;100.00;96345.22;5035630;28;20072;-66
2021/08/16 00:54:57;;;;;;;20.63;10.70;;;;;;;19.72;100.00;96330.03;5037507;28;20065;-67
2021/08/16 00:57:25;;;;;;;23.35;10.68;;;;;;;19.89;100.00;96330.81;5032056;28;20909;-65
2021/08/16 00:59:50;;;;;;;23.20;10.25;;;;;;;19.90;100.00;96324.06;5040445;28;20132;-66
2021/08/16 01:02:16;;;;;;;21.75;10.88;;;;;;;19.91;100.00;96324.81;5028756;28;20135;-66
2021/08/16 01:04:42;;;;;;;24.45;10.30;;;;;;;19.89;100.00;96321.72;5038755;28;20041;-68
2021/08/16 01:07:07;;;;;;;18.40;10.95;;;;;;;19.90;100.00;96315.72;5039176;28;20091;-66
2021/08/16 01:09:33;;;;;;;25.88;10.60;;;;;;;19.93;100.00;96312.03;5048282;28;20594;-66
2021/08/16 01:11:59;;;;;;;25.75;10.70;;;;;;;19.96;100.00;96313.19;5043074;28;20045;-67
2021/08/16 01:14:25;;;;;;;19.17;10.00;;;;;;;19.97;100.00;96309.16;5034167;28;20052;-67
2021/08/16 01:16:50;;;;;;;18.83;8.80;;;;;;;19.94;100.00;96313.63;5020536;28;20041;-69
2021/08/16 01:19:17;;;;;;;22.08;10.50;;;;;;;19.81;100.00;96315.56;5033146;28;20080;-67
2021/08/16 01:21:43;;;;;;;25.08;11.43;;;;;;;19.61;100.00;96307.31;5038495;28;20050;-67
2021/08/16 01:24:09;;;;;;;22.58;11.85;;;;;;;19.52;100.00;96309.91;5028409;28;20033;-68
2021/08/16 01:26:34;;;;;;;23.30;12.02;;;;;;;19.43;100.00;96308.53;5037179;28;20040;-66
2021/08/16 01:29:02;;;;;;;20.40;11.52;;;;;;;19.49;100.00;96298.47;5035153;28;20490;-66
2021/08/16 01:31:28;;;;;;;25.85;11.65;;;;;;;19.62;100.00;96301.31;5034386;28;20497;-66
2021/08/16 01:33:53;;;;;;;22.88;11.52;;;;;;;19.64;100.00;96312.00;5022694;28;20047;-66
2021/08/16 01:36:18;;;;;;;23.88;11.23;;;;;;;19.79;100.00;96313.22;5033978;28;20071;-68
2021/08/16 01:38:44;;;;;;;20.00;10.13;;;;;;;19.68;100.00;96305.13;5022074;28;20072;-65
2021/08/16 01:41:09;;;;;;;18.50;9.15;;;;;;;19.69;100.00;96303.13;5036115;28;20494;-65
2021/08/16 01:43:35;;;;;;;17.52;9.45;;;;;;;19.84;100.00;96309.91;5041756;28;20037;-66
2021/08/16 01:46:03;;;;;;;17.35;9.32;;;;;;;19.87;100.00;96302.69;5038899;28;20072;-66
2021/08/16 01:48:29;;;;;;;16.98;8.70;;;;;;;19.95;100.00;96300.50;5030164;28;20039;-64
2021/08/16 01:50:55;;;;;;;16.35;7.95;;;;;;;20.22;100.00;96294.56;5040696;28;20037;-67
2021/08/16 01:53:21;;;;;;;23.50;8.32;;;;;;;20.50;100.00;96286.66;5035019;28;20049;-66
2021/08/16 01:55:47;;;;;;;20.20;8.75;;;;;;;20.55;100.00;96297.22;5040303;28;20102;-66
2021/08/16 01:58:12;;;;;;;16.10;8.63;;;;;;;20.49;100.00;96294.22;5036437;28;20616;-66
2021/08/16 02:00:38;;;;;;;20.75;9.50;;;;;;;20.36;100.00;96294.16;5037057;28;20563;-66
2021/08/16 02:03:05;;;;;;;19.20;9.80;;;;;;;20.32;100.00;96298.28;5037190;28;20128;-68
2021/08/16 02:05:30;;;;;;;22.77;9.55;;;;;;;20.32;100.00;96310.19;5033251;28;20736;-66
2021/08/16 02:07:59;;;;;;;23.95;9.90;;;;;;;20.35;100.00;96312.09;5038933;28;20055;-66
2021/08/16 02:10:25;;;;;;;16.73;9.95;;;;;;;20.37;100.00;96311.66;5027163;28;20053;-66
2021/08/16 02:12:50;;;;;;;25.52;9.20;;;;;;;20.35;100.00;96305.75;5018276;28;20033;-66
2021/08/16 02:15:15;;;;;;;15.15;9.02;;;;;;;20.35;100.00;96297.41;5030568;28;20047;-67
2021/08/16 02:17:41;;;;;;;22.33;9.23;;;;;;;20.28;100.00;96290.06;5033071;28;20044;-66
2021/08/16 02:20:08;;;;;;;17.20;9.50;;;;;;;20.34;100.00;96293.84;5035662;28;20067;-66
2021/08/16 02:22:33;;;;;;;16.48;8.88;;;;;;;20.33;100.00;96300.63;5035808;28;20045;-66
2021/08/16 02:24:59;;;;;;;17.65;8.70;;;;;;;20.29;100.00;96315.84;5017621;28;20045;-65
2021/08/16 02:27:24;;;;;;;20.10;9.98;;;;;;;20.17;100.00;96329.28;5021977;28;20124;-66
2021/08/16 02:29:50;;;;;;;23.77;9.90;;;;;;;19.98;100.00;96333.75;5041060;28;20060;-66
2021/08/16 02:32:16;;;;;;;18.08;9.65;;;;;;;19.85;100.00;96347.59;5034348;28;20573;-67
2021/08/16 02:34:41;;;;;;;16.00;10.23;;;;;;;19.97;100.00;96336.97;5040599;28;20037;-66
2021/08/16 02:37:07;;;;;;;20.27;9.55;;;;;;;20.35;100.00;96339.13;5024442;28;20052;-66
2021/08/16 02:39:33;;;;;;;20.30;9.82;;;;;;;20.50;100.00;96336.72;5039220;28;20123;-66
2021/08/16 02:41:58;;;;;;;19.17;9.68;;;;;;;20.43;100.00;96346.81;5040701;28;20044;-67
2021/08/16 02:44:24;;;;;;;18.25;9.20;;;;;;;20.59;100.00;96367.44;5034855;28;20914;-67
2021/08/16 02:46:49;;;;;;;17.38;6.93;;;;;;;20.53;98.69;96370.00;5031733;28;20037;-66
2021/08/16 02:49:15;;;;;;;7.63;5.45;;;;;;;20.61;91.65;96368.59;5032359;28;20159;-67
2021/08/16 02:51:40;;;;;;;11.52;4.40;;;;;;;20.78;87.55;96365.75;5040729;28;20037;-66
2021/08/16 02:54:06;;;;;;;7.15;3.13;;;;;;;20.80;81.86;96369.66;5027728;28;20048;-66
2021/08/16 02:56:31;;;;;;;8.32;3.00;;;;;;;20.83;79.49;96369.97;5032898;28;20037;-64
2021/08/16 02:58:57;;;;;;;5.60;2.00;;;;;;;20.76;77.91;96376.53;5040257;28;20486;-66
2021/08/16 03:01:22;;;;;;;7.00;2.30;;;;;;;20.61;79.05;96381.72;5025878;28;20981;-66
2021/08/16 03:03:48;;;;;;;5.50;2.30;;;;;;;20.67;79.13;96365.25;5039940;28;20440;-63
2021/08/16 03:06:13;;;;;;;7.35;2.30;;;;;;;20.58;79.64;96371.44;5033161;28;20126;-65
2021/08/16 03:08:39;;;;;;;9.00;2.20;;;;;;;20.51;80.30;96375.22;5032933;28;20041;-64
2021/08/16 03:11:05;;;;;;;6.20;2.47;;;;;;;20.51;80.79;96363.31;5032647;28;20132;-67
2021/08/16 03:13:32;;;;;;;4.30;2.13;;;;;;;20.55;81.30;96356.44;5036962;28;20037;-65
2021/08/16 03:15:58;;;;;;;5.32;2.15;;;;;;;20.51;81.50;96352.97;5028071;28;20057;-66
2021/08/16 03:18:23;;;;;;;5.40;2.03;;;;;;;20.51;82.00;96366.88;5033508;28;20110;-66
2021/08/16 03:20:51;;;;;;;10.30;2.50;;;;;;;20.47;82.66;96360.63;5036406;28;20405;-65
2021/08/16 03:23:17;;;;;;;6.88;2.30;;;;;;;20.47;83.16;96348.72;5023189;28;20072;-66
2021/08/16 03:25:42;;;;;;;5.70;2.28;;;;;;;20.49;83.22;96362.97;5036266;28;20393;-66
2021/08/16 03:28:08;;;;;;;5.20;2.47;;;;;;;20.34;84.33;96357.81;5023665;28;20045;-66
2021/08/16 03:30:33;;;;;;;11.32;2.33;;;;;;;20.30;84.87;96356.34;5037657;28;20399;-66
2021/08/16 03:32:58;;;;;;;6.80;2.70;;;;;;;20.30;84.69;96353.56;5039758;28;20494;-65
2021/08/16 03:35:24;;;;;;;9.02;2.38;;;;;;;20.31;84.81;96355.91;5028629;28;20076;-65
2021/08/16 03:37:49;;;;;;;5.90;2.28;;;;;;;20.41;84.41;96367.94;5034813;28;20678;-66
2021/08/16 03:40:15;;;;;;;5.50;2.63;;;;;;;20.41;83.70;96351.25;5033037;28;20045;-66
2021/08/16 03:42:41;;;;;;;6.07;2.72;;;;;;;20.43;83.70;96362.72;5034129;28;20098;-66
2021/08/16 03:45:16;;;;;;;6.57;2.72;;;;;;;20.55;82.87;96358.44;5033327;28;20834;-66
2021/08/16 03:47:42;;;;;;;7.30;2.40;;;;;;;20.52;83.64;96367.66;5040003;28;20129;-66
2021/08/16 03:50:08;;;;;;;6.75;2.90;;;;;;;20.56;83.26;96363.56;5030525;28;20128;-66
2021/08/16 03:52:34;;;;;;;9.98;3.05;;;;;;;20.59;83.30;96371.00;5039210;28;20037;-66
2021/08/16 03:55:00;;;;;;;5.32;2.42;;;;;;;20.52;84.19;96378.78;5039341;28;20044;-65
2021/08/16 03:57:25;;;;;;;6.28;2.83;;;;;;;20.65;83.58;96378.84;5013566;28;20041;-66
2021/08/16 03:59:51;;;;;;;7.80;2.92;;;;;;;20.74;83.01;96370.63;5040596;28;20034;-66
2021/08/16 04:02:17;;;;;;;7.22;2.90;;;;;;;20.72;83.32;96376.63;5033407;28;20064;-64
2021/08/16 04:04:43;;;;;;;5.70;2.97;;;;;;;20.43;85.01;96368.28;5026476;28;20073;-65
2021/08/16 04:07:08;;;;;;;7.88;3.13;;;;;;;20.40;85.92;96371.94;5031186;28;20048;-65
2021/08/16 04:09:34;;;;;;;7.38;3.13;;;;;;;20.44;86.53;96369.88;5038361;28;20047;-65
2021/08/16 04:11:59;;;;;;;7.13;2.95;;;;;;;20.53;86.41;96380.34;5030788;28;20556;-67
2021/08/16 04:14:24;;;;;;;5.40;2.85;;;;;;;20.46;86.94;96386.13;5031930;28;20406;-65
2021/08/16 04:16:50;;;;;;;5.65;2.80;;;;;;;20.34;87.78;96385.63;5032496;28;20041;-67
2021/08/16 04:19:16;;;;;;;6.07;3.25;;;;;;;20.38;87.66;96389.09;5029791;28;20131;-67
2021/08/16 04:21:43;;;;;;;8.43;2.83;;;;;;;20.51;86.79;96382.78;5033607;28;20033;-65
2021/08/16 04:24:08;;;;;;;9.27;3.10;;;;;;;20.42;87.08;96378.66;5033416;28;20079;-67
2021/08/16 04:26:34;;;;;;;5.22;3.20;;;;;;;20.27;88.39;96373.91;5037275;28;20521;-67
2021/08/16 04:28:59;;;;;;;7.40;3.00;;;;;;;19.95;90.27;96375.53;5036349;28;20056;-65
2021/08/16 04:31:24;;;;;;;7.50;3.20;;;;;;;19.64;93.04;96387.00;5028840;28;20048;-66
2021/08/16 04:33:50;;;;;;;5.95;3.13;;;;;;;19.48;94.22;96390.53;5035804;28;20045;-64
2021/08/16 04:36:15;;;;;;;6.03;3.40;;;;;;;19.45;94.16;96388.66;5022502;28;20052;-64
2021/08/16 04:38:41;;;;;;;11.52;3.55;;;;;;;19.51;92.99;96386.91;5026568;28;20037;-67
2021/08/16 04:41:06;;;;;;;8.30;3.03;;;;;;;19.53;93.54;96395.59;5027952;28;20439;-66
2021/08/16 04:43:32;;;;;;;8.77;3.40;;;;;;;19.53;93.67;96398.38;5034841;28;20041;-66
2021/08/16 04:45:57;;;;;;;7.47;3.60;;;;;;;19.58;93.63;96397.06;5038528;28;20180;-66
2021/08/16 04:48:23;;;;;;;9.07;3.85;;;;;;;19.62;93.44;96394.97;5032469;28;20125;-67
2021/08/16 04:50:49;;;;;;;6.50;3.90;;;;;;;19.60;94.06;96389.84;5031825;28;20052;-66
2021/08/16 04:53:14;;;;;;;10.40;3.70;;;;;;;19.77;94.53;96401.00;5027854;28;20417;-66
2021/08/16 04:55:39;;;;;;;7.13;3.05;;;;;;;19.92;93.75;96402.22;5034937;28;20532;-66
2021/08/16 04:58:05;;;;;;;7.68;4.30;;;;;;;20.38;90.21;96393.84;5033353;28;20472;-67
2021/08/16 05:00:30;;;;;;;5.55;3.30;;;;;;;20.47;89.46;96398.78;5036132;28;20054;-67
2021/08/16 05:02:56;;;;;;;8.43;4.07;;;;;;;20.29;89.97;96391.69;5027461;28;20069;-67
2021/08/16 05:05:29;;;;;;;5.97;3.67;;;;;;;20.22;90.86;96395.47;5031133;28;20044;-67
2021/08/16 05:07:55;;;;;;;9.45;3.92;;;;;;;20.51;90.62;96394.69;5032418;28;20597;-67
2021/08/16 05:10:21;;;;;;;5.65;3.28;;;;;;;20.55;89.89;96400.94;5031132;28;20071;-65
2021/08/16 05:12:49;;;;;;;6.90;3.90;;;;;;;20.64;88.39;96400.34;5033686;28;20136;-65
2021/08/16 05:15:15;;;;;;;11.07;3.78;;;;;;;20.72;88.41;96395.34;5035312;28;20045;-66
2021/08/16 05:17:40;;;;;;;10.30;3.75;;;;;;;21.08;86.37;96403.41;5032984;28;20708;-65
2021/08/16 05:20:08;;;;;;;7.47;3.38;;;;;;;21.43;83.74;96403.56;5037016;28;20052;-65
2021/08/16 05:22:35;;;;;;;6.72;3.85;;;;;;;21.26;84.79;96408.44;5040433;28;20072;-66
2021/08/16 05:25:00;;;;;;;10.13;3.80;;;;;;;21.13;85.74;96404.88;5039217;28;20044;-65
2021/08/16 05:27:26;;;;;;;8.23;3.72;;;;;;;21.28;85.19;96411.56;5027930;28;20819;-65
2021/08/16 05:29:51;;;;;;;8.63;4.10;;;;;;;21.46;84.85;96411.03;5041508;28;20041;-65
2021/08/16 05:32:17;;;;;;;13.18;3.95;;;;;;;21.40;85.16;96412.81;5027080;28;20055;-65
2021/08/16 05:34:43;;;;;;;7.25;4.43;;;;;;;21.42;84.57;96417.94;5042268;28;20065;-65
2021/08/16 05:37:09;;;;;;;8.02;4.00;;;;;;;21.32;85.26;96412.25;5037851;28;20140;-66
2021/08/16 05:39:35;;;;;;;8.35;4.43;;;;;;;21.36;85.46;96410.13;5042273;28;20045;-66
2021/08/16 05:42:01;;;;;;;7.38;4.10;;;;;;;21.69;83.38;96415.47;5035337;28;20051;-68
2021/08/16 05:44:27;;;;;;;9.40;4.38;;;;;;;21.70;83.44;96410.72;5037382;28;20044;-66
2021/08/16 05:46:53;;;;;;;10.82;4.70;;;;;;;21.81;83.04;96413.16;5041377;28;20104;-65
2021/08/16 05:49:18;;;;;;;9.65;5.03;;;;;;;21.72;83.30;96411.03;5037394;28;20094;-65
2021/08/16 05:51:43;;;;;;;11.50;4.82;;;;;;;21.27;85.66;96426.72;5038816;28;20052;-65
2021/08/16 05:54:09;;;;;;;12.23;5.38;;;;;;;21.06;87.15;96430.91;5034334;28;20080;-65
2021/08/16 05:56:34;;;;;;;11.63;5.05;;;;;;;21.14;86.98;96428.69;5039435;28;20037;-66
2021/08/16 05:58:59;;;;;;;8.82;5.05;;;;;;;21.15;87.03;96441.41;5041609;28;20041;-66
2021/08/16 06:01:25;;;;;;;11.15;5.30;;;;;;;21.20;87.18;96438.09;5032221;28;20071;-66
2021/08/16 06:03:51;;;;;;;15.63;5.72;;;;;;;21.26;86.13;96441.09;5042196;28;20040;-66
2021/08/16 06:06:16;;;;;;;10.40;5.53;;;;;;;21.23;86.66;96451.13;5036353;28;20118;-66
2021/08/16 06:08:41;;;;;;;9.85;5.25;;;;;;;21.28;86.43;96444.22;5031424;28;20072;-66
2021/08/16 06:11:07;;;;;;;7.07;4.40;;;;;;;21.41;85.68;96449.78;5034529;28;20041;-64
2021/08/16 06:13:32;;;;;;;12.88;5.32;;;;;;;21.31;85.78;96443.31;5041243;28;20359;-67
2021/08/16 06:15:58;;;;;;;9.60;5.20;;;;;;;21.38;85.85;96449.44;5039680;28;20136;-66
2021/08/16 06:18:24;;;;;;;8.27;4.68;;;;;;;21.33;86.15;96446.44;5028558;28;20123;-66
2021/08/16 06:20:50;;;;;;;11.13;5.53;;;;;;;21.28;85.98;96452.56;5024558;28;20041;-67
2021/08/16 06:23:15;;;;;;;10.98;5.13;;;;;;;21.48;85.04;96446.81;5025294;28;20045;-66
2021/08/16 06:25:40;;;;;;;12.07;5.25;;;;;;;21.44;84.42;96444.09;5037225;28;20072;-66
2021/08/16 06:28:06;;;;;;;8.75;5.45;;;;;;;21.46;84.01;96440.91;5027274;28;20045;-67
2021/08/16 06:30:31;;;;;;;9.10;5.20;;;;;;;21.65;83.26;96436.34;5038422;28;20101;-66
2021/08/16 06:32:56;;;;;;;8.20;4.68;;;;;;;21.50;83.81;96436.00;5039267;28;20041;-66
2021/08/16 06:35:22;;;;;;;8.32;4.80;;;;;;;21.62;82.99;96434.44;5035704;28;20522;-67
2021/08/16 06:37:48;;;;;;;11.25;4.97;;;;;;;21.50;83.79;96447.16;5039813;28;20045;-66
2021/08/16 06:40:14;;;;;;;8.98;4.75;;;;;;;21.34;84.38;96439.66;5029425;28;20119;-67
2021/08/16 06:42:40;;;;;;;10.18;5.30;;;;;;;21.33;84.39;96443.66;5043767;28;20128;-67
2021/08/16 06:45:06;;;;;;;8.40;5.38;;;;;;;21.35;84.10;96449.56;5036855;28;20129;-68
2021/08/16 06:47:32;;;;;;;12.02;4.75;;;;;;;21.39;84.00;96451.03;5041497;28;20044;-66
2021/08/16 06:49:57;;;;;;;10.27;5.30;;;;;;;21.47;83.88;96453.63;5040929;28;20062;-67
2021/08/16 06:52:23;;;;;;;11.90;6.05;;;;;;;21.30;84.22;96450.91;5034475;28;20437;-66
2021/08/16 06:54:48;;;;;;;10.25;4.95;;;;;;;21.22;84.54;96452.34;5009659;28;20068;-66
2021/08/16 06:57:14;;;;;;;12.68;5.78;;;;;;;21.27;84.89;96449.00;5034493;28;20048;-65
2021/08/16 06:59:39;;;;;;;9.68;5.10;;;;;;;21.34;84.79;96448.78;5039237;28;20448;-65
2021/08/16 07:02:05;;;;;;;10.40;5.47;;;;;;;21.54;83.53;96443.03;5034651;28;20389;-67
2021/08/16 07:04:30;;;;;;;13.25;4.78;;;;;;;21.74;82.25;96453.19;5035395;28;20041;-66
2021/08/16 07:06:55;;;;;;;11.63;4.93;;;;;;;21.98;80.95;96452.81;5035335;28;20561;-66
2021/08/16 07:09:21;;;;;;;11.05;5.53;;;;;;;22.06;80.25;96459.72;5034002;28;20598;-66
2021/08/16 07:11:46;;;;;;;18.30;5.47;;;;;;;21.95;80.14;96452.47;5029624;28;20045;-65
2021/08/16 07:14:12;;;;;;;12.02;5.30;;;;;;;21.83;80.27;96456.06;5031171;28;20398;-67
2021/08/16 07:16:37;;;;;;;13.45;5.03;;;;;;;21.85;80.70;96450.03;5037317;28;20044;-67
2021/08/16 07:19:03;;;;;;;7.60;4.55;;;;;;;22.06;79.78;96452.13;5037354;28;20135;-67
2021/08/16 07:21:28;;;;;;;7.95;4.85;;;;;;;22.47;77.19;96444.00;5033303;28;20363;-66
2021/08/16 07:23:55;;;;;;;9.80;4.32;;;;;;;22.46;76.51;96443.22;5039083;28;20049;-66
2021/08/16 07:26:20;;;;;;;9.73;4.93;;;;;;;22.16;77.82;96455.78;5033495;28;20090;-66
2021/08/16 07:28:46;;;;;;;9.05;5.07;;;;;;;22.03;78.16;96452.25;5039920;28;20044;-66
2021/08/16 07:31:13;;;;;;;9.82;4.78;;;;;;;21.94;77.21;96453.69;5031987;28;20080;-66
2021/08/16 07:33:39;;;;;;;12.18;5.38;;;;;;;22.05;77.60;96439.41;5039125;28;20037;-65
2021/08/16 07:36:05;;;;;;;14.02;4.78;;;;;;;22.17;76.34;96453.78;5035127;28;20045;-67
2021/08/16 07:38:30;;;;;;;11.95;5.05;;;;;;;22.19;75.96;96445.75;5039300;28;20056;-65
2021/08/16 07:40:56;;;;;;;11.65;5.03;;;;;;;22.03;76.51;96447.44;5038833;28;20239;-64
2021/08/16 07:43:21;;;;;;;12.60;4.45;;;;;;;22.43;75.34;96446.16;5031850;28;20507;-65
2021/08/16 07:45:49;;;;;;;10.60;4.90;;;;;;;22.20;76.29;96452.88;5017472;28;20045;-67
2021/08/16 07:48:15;;;;;;;14.27;5.70;;;;;;;22.35;76.27;96461.59;5030430;28;20065;-68
2021/08/16 07:50:40;;;;;;;9.95;5.03;;;;;;;22.16;76.44;96453.00;5034796;28;20067;-67
2021/08/16 07:53:07;;;;;;;12.07;4.63;;;;;;;22.11;76.49;96459.13;5034117;28;20550;-67
2021/08/16 07:55:32;;;;;;;11.43;5.10;;;;;;;22.13;76.45;96454.69;5037357;28;20514;-66
2021/08/16 07:57:57;;;;;;;11.80;4.82;;;;;;;22.08;76.71;96460.81;5019460;28;20057;-65
2021/08/16 08:00:23;;;;;;;8.10;4.70;;;;;;;21.95;76.85;96468.44;5031499;28;20547;-67
2021/08/16 08:02:50;;;;;;;8.73;4.55;;;;;;;21.87;76.56;96458.72;5036075;28;20041;-66
2021/08/16 08:05:17;;;;;;;10.60;4.85;;;;;;;22.10;76.66;96455.56;5032732;28;20417;-65
2021/08/16 08:07:43;;;;;;;12.60;5.20;;;;;;;22.48;74.89;96453.94;5039021;28;20032;-66
2021/08/16 08:10:10;;;;;;;9.85;5.28;;;;;;;22.50;74.75;96448.69;5031893;28;20037;-66
2021/08/16 08:12:36;;;;;;;9.30;4.40;;;;;;;22.73;73.52;96453.06;5031657;28;20311;-66
2021/08/16 08:15:03;;;;;;;7.88;4.47;;;;;;;22.61;73.65;96453.88;5038590;28;20072;-66
2021/08/16 08:17:28;;;;;;;8.43;4.82;;;;;;;22.38;73.79;96467.00;5000551;28;20041;-66
2021/08/16 08:19:55;;;;;;;11.10;5.03;;;;;;;22.45;74.38;96471.56;5031773;28;20049;-66
2021/08/16 08:22:21;;;;;;;9.07;4.57;;;;;;;22.26;74.85;96467.81;5022315;28;20141;-66
2021/08/16 08:24:46;;;;;;;19.83;4.70;;;;;;;22.03;75.29;96464.19;5038300;28;20044;-65
2021/08/16 08:27:13;;;;;;;11.80;5.35;;;;;;;22.25;75.02;96458.66;5031313;28;20550;-68
2021/08/16 08:29:39;;;;;;;10.63;4.97;;;;;;;22.31;75.09;96470.06;5030253;28;20514;-67
2021/08/16 08:32:04;;;;;;;14.45;4.93;;;;;;;22.18;75.45;96467.25;5025378;28;20044;-67
2021/08/16 08:34:30;;;;;;;12.80;5.78;;;;;;;22.18;75.81;96464.47;5029838;28;20040;-66
2021/08/16 08:36:56;;;;;;;12.10;6.40;;;;;;;22.18;75.72;96474.84;5036744;28;20045;-67
2021/08/16 08:39:21;;;;;;;10.57;4.65;;;;;;;22.12;76.22;96486.56;5032978;28;20928;-66
2021/08/16 08:41:48;;;;;;;10.00;4.72;;;;;;;21.90;76.77;96475.34;5038697;28;20040;-64
2021/08/16 08:44:14;;;;;;;11.80;4.60;;;;;;;21.86;77.30;96476.69;5032227;28;20436;-67
2021/08/16 08:46:41;;;;;;;11.00;4.90;;;;;;;21.81;76.58;96466.13;5037214;28;20097;-67
2021/08/16 08:49:10;;;;;;;9.32;4.47;;;;;;;;;;5031548;28;20125;-67
2021/08/16 08:51:38;;;;;;;7.90;4.07;;;;;;;21.55;76.32;96474.44;5027980;28;20076;-67
2021/08/16 08:54:04;;;;;;;10.45;5.22;;;;;;;21.53;75.66;96465.75;5031856;28;20556;-68
2021/08/16 08:56:30;;;;;;;15.90;5.22;;;;;;;21.21;77.04;96470.25;5037010;28;20044;-66
2021/08/16 08:58:56;;;;;;;10.50;4.65;;;;;;;21.12;77.35;96470.94;5033270;28;20046;-66
2021/08/16 09:01:21;;;;;;;9.07;4.35;;;;;;;21.25;76.65;96470.94;5028828;28;20792;-67
2021/08/16 09:03:52;;;;;;;7.60;4.05;;;;;;;21.30;75.82;96464.03;5037559;28;20040;-66
2021/08/16 09:06:34;;;;;;;9.85;4.72;;;;;;;21.15;75.55;96469.25;5026842;28;20049;-66
2021/08/16 09:09:01;;;;;;;8.90;4.30;;;;;;;21.10;76.13;96478.16;5031279;28;20069;-65
2021/08/16 09:11:28;;;;;;;8.82;4.22;;;;;;;21.15;75.08;96466.47;5030243;28;20071;-67
2021/08/16 09:13:59;;;;;;;7.28;3.90;;;;;;;21.38;74.45;96459.81;5036809;28;20037;-64
2021/08/16 09:16:27;;;;;;;10.15;4.95;;;;;;;21.22;76.19;96473.84;5031273;28;20140;-64
2021/08/16 09:18:52;;;;;;;9.20;4.55;;;;;;;21.25;76.89;96470.16;5037353;28;20143;-64
2021/08/16 09:21:29;;;;;;;10.15;3.70;;;;;;;21.25;75.61;96459.00;5031647;28;20132;-64
2021/08/16 09:23:56;;;;;;;7.50;3.97;;;;;;;20.94;77.40;96457.53;5026954;28;20045;-65
2021/08/16 09:26:28;;;;;;;9.30;4.28;;;;;;;20.92;79.37;96464.75;5012635;28;21727;-64
2021/08/16 09:28:53;;;;;;;10.60;4.50;;;;;;;21.05;78.08;96468.34;5038392;28;20044;-65
2021/08/16 09:31:21;;;;;;;10.55;5.00;;;;;;;20.86;78.74;96469.31;5036406;28;20646;-64
2021/08/16 09:33:57;;;;;;;11.13;4.32;;;;;;;20.51;79.39;96480.13;5038753;28;20608;-64
2021/08/16 09:36:40;;;;;;;10.25;3.90;;;;;;;20.24;80.25;96478.47;5031299;28;20783;-65
2021/08/16 09:39:19;;;;;;;6.78;3.75;;;;;;;20.17;80.08;96484.22;5031040;28;20609;-64
2021/08/16 09:41:46;;;;;;;8.27;3.70;;;;;;;20.11;80.44;96492.25;5032548;28;20095;-65
2021/08/16 09:44:14;;;;;;;11.57;4.30;;;;;;;19.96;80.75;96500.19;5021141;28;20040;-65
2021/08/16 09:46:40;;;;;;;7.55;4.03;;;;;;;19.82;80.99;96501.28;5038275;28;20039;-64
2021/08/16 09:49:08;;;;;;;7.57;3.67;;;;;;;19.76;80.78;96503.03;5027589;28;20045;-63
2021/08/16 09:51:35;;;;;;;12.75;4.72;;;;;;;19.59;85.02;96504.97;5038137;28;20044;-65
2021/08/16 09:54:01;;;;;;;11.35;4.82;;;;;;;19.63;84.05;96491.78;5037617;28;20494;-65
2021/08/16 09:56:28;;;;;;;10.05;5.40;;;;;;;19.61;87.48;96483.09;5024377;28;20122;-64
2021/08/16 09:58:54;;;;;;;8.10;4.78;;;;;;;19.63;84.69;96479.91;5028501;28;20379;-66
2021/08/16 10:01:19;;;;;;;16.02;4.70;;;;;;;19.47;88.10;96495.31;5036773;28;20056;-68
2021/08/16 10:03:46;;;;;;;14.32;4.88;;;;;;;19.44;87.69;96496.16;5041544;28;20110;-66
2021/08/16 10:06:17;;;;;;;16.38;5.40;;;;;;;19.44;88.86;96498.16;5036647;28;20037;-68
2021/08/16 10:08:51;;;;;;;10.80;5.35;;;;;;;19.05;93.08;96497.00;5042541;28;20039;-69
2021/08/16 10:11:18;;;;;;;11.93;5.03;;;;;;;18.85;96.36;96511.69;5035713;28;20045;-68
2021/08/16 10:13:51;;;;;;;12.38;5.13;;;;;;;18.77;96.25;96510.19;5041306;28;20043;-68
2021/08/16 10:16:20;;;;;;;9.65;5.47;;;;;;;18.70;97.39;96508.34;5044528;28;20040;-67
2021/08/16 10:18:50;;;;;;;9.82;5.75;;;;;;;18.72;98.00;96505.16;5058689;28;20072;-67
2021/08/16 10:21:17;;;;;;;;;;;;;;;18.85;97.83;96502.53;5037387;28;20056;-65
2021/08/16 10:23:54;;;;;;;6.93;4.47;;;;;;;18.78;97.53;96509.00;5041557;28;20015;-66
2021/08/16 10:26:34;;;;;;;10.20;4.70;;;;;;;18.84;98.41;96510.09;5025500;28;20049;-65
2021/08/16 10:29:04;;;;;;;10.13;4.75;;;;;;;18.90;98.70;96502.81;5041052;28;20045;-67
2021/08/16 10:31:35;;;;;;;9.27;4.90;;;;;;;18.84;97.91;96510.09;5040862;28;20097;-66
2021/08/16 10:34:01;;;;;;;8.25;4.80;;;;;;;18.65;99.48;96508.81;5040292;28;20064;-68
2021/08/16 10:36:27;;;;;;;10.55;4.70;;;;;;;18.50;99.99;96511.09;5035623;28;20517;-67
2021/08/16 10:39:00;;;;;;;10.77;4.80;;;;;;;18.24;100.00;96509.97;5039384;28;20049;-68
2021/08/16 10:41:28;;;;;;;11.25;4.70;;;;;;;18.18;100.00;96505.31;5023012;28;20124;-67
2021/08/16 10:43:55;;;;;;;9.40;4.50;;;;;;;18.41;100.00;96507.31;5033431;28;20099;-68
2021/08/16 10:46:22;;;;;;;10.57;4.32;;;;;;;18.63;100.00;96507.69;5034066;28;20132;-67
2021/08/16 10:49:12;;;;;;;9.98;4.75;;;;;;;18.59;99.85;96502.22;5041286;28;20041;-67
2021/08/16 10:51:46;;;;;;;8.63;4.53;;;;;;;18.59;99.85;96513.31;5037340;28;20098;-67
2021/08/16 10:54:23;;;;;;;7.78;4.47;;;;;;;18.56;100.00;96508.59;5034804;28;20822;-66
2021/08/16 10:56:54;;;;;;;8.30;4.63;;;;;;;18.57;99.87;96501.09;5041055;28;20047;-66
2021/08/16 10:59:23;;;;;;;10.30;4.65;;;;;;;18.91;98.22;96490.53;5035372;28;20045;-66
2021/08/16 11:01:49;;;;;;;7.90;3.65;;;;;;;19.21;94.98;96499.06;5038947;28;20045;-66
2021/08/16 11:04:16;;;;;;;7.93;3.45;;;;;;;19.40;93.74;96491.91;5034397;28;20652;-66
2021/08/16 11:07:02;;;;;;;8.13;3.83;;;;;;;19.47;93.69;96502.88;5039524;28;20041;-65
2021/08/16 11:09:29;;;;;;;8.27;3.97;;;;;;;19.55;94.07;96492.38;5034347;28;20501;-65
2021/08/16 11:12:02;;;;;;;8.00;3.70;;;;;;;19.70;93.43;96490.03;5040139;28;20045;-68
2021/08/16 11:14:28;;;;;;;12.02;3.78;;;;;;;19.77;93.25;96493.50;5035415;28;20040;-68
2021/08/16 11:16:54;;;;;;;6.60;4.13;;;;;;;19.63;93.50;96483.44;5040656;28;20045;-66
2021/08/16 11:19:21;;;;;;;18.20;5.00;;;;;;;19.63;94.24;96477.13;5033032;28;20059;-68
2021/08/16 11:21:59;;;;;;;14.15;4.50;;;;;;;19.52;94.57;96469.03;5038743;28;20506;-69
2021/08/16 11:24:36;;;;;;;16.38;4.65;;;;;;;19.60;93.35;96475.19;5026035;28;20037;-67
2021/08/16 11:27:03;;;;;;;6.78;4.15;;;;;;;19.36;94.84;96478.09;5039387;28;20076;-70
2021/08/16 11:29:29;;;;;;;9.32;4.03;;;;;;;19.43;95.05;96469.63;5038018;28;20044;-66